Time;durP1;ratioP1;P1;durP2;ratioP2;P2;SDS_P1;SDS_P2;PMS_P1;PMS_P2;Temp;Humidity;BMP_temperature;BMP_pressure;BME280_temperature;BME280_humidity;BME280_pressure;Samples;Min_cycle;Max_cycle;Signal;HPM_P1;HPM_P2
2022/03/18 00:00:18;;;;;;;4.05;3.60;;;;;;;;;;5001318;28;20533;-57
2022/03/18 00:02:44;;;;;;;3.95;3.65;;;;;;;;;;5002863;28;20045;-58
2022/03/18 00:05:11;;;;;;;4.97;4.22;;;;;;;;;;5002356;28;20026;-58
2022/03/18 00:07:38;;;;;;;3.75;3.45;;;;;;;;;;5001427;28;20286;-57
2022/03/18 00:10:05;;;;;;;5.63;3.85;;;;;;;;;;5004488;28;20038;-56
2022/03/18 00:12:30;;;;;;;3.47;3.17;;;;;;;;;;5001668;28;20124;-57
2022/03/18 00:14:55;;;;;;;3.85;3.50;;;;;;;;;;5003638;28;20122;-57
2022/03/18 00:17:21;;;;;;;4.30;3.90;;;;;;;;;;5000906;28;20102;-56
2022/03/18 00:19:46;;;;;;;4.15;3.75;;;;;;;;;;5001736;28;20030;-58
2022/03/18 00:22:12;;;;;;;3.80;3.50;;;;;;;;;;5000417;28;20058;-56
2022/03/18 00:24:37;;;;;;;3.63;3.33;;;;;;;;;;5001770;28;20030;-57
2022/03/18 00:27:04;;;;;;;4.30;3.35;;;;;;;;;;5001723;28;20101;-56
2022/03/18 00:29:30;;;;;;;3.85;3.45;;;;;;;;;;5004881;28;20017;-56
2022/03/18 00:31:56;;;;;;;6.43;3.80;;;;;;;;;;5002815;28;20045;-56
2022/03/18 00:34:21;;;;;;;4.97;4.10;;;;;;;;;;5002517;28;20026;-56
2022/03/18 00:36:47;;;;;;;3.70;3.40;;;;;;;;;;5001215;28;20029;-57
2022/03/18 00:39:12;;;;;;;3.42;3.13;;;;;;;;;;5000956;28;20470;-58
2022/03/18 00:41:38;;;;;;;4.22;3.83;;;;;;;;;;5001112;28;20428;-57
2022/03/18 00:44:04;;;;;;;4.45;4.05;;;;;;;;;;5002509;28;20026;-58
2022/03/18 00:46:29;;;;;;;4.43;4.03;;;;;;;;;;5002269;28;20052;-58
2022/03/18 00:54:23;;;;;;;3.90;3.50;;;;;;;;;;4999406;28;20455;-57
2022/03/18 00:56:48;;;;;;;3.58;3.28;;;;;;;;;;4997688;28;20092;-56
2022/03/18 00:59:14;;;;;;;3.60;3.30;;;;;;;;;;4999718;28;20397;-57
2022/03/18 01:01:39;;;;;;;5.72;4.55;;;;;;;;;;5002751;28;20061;-57
2022/03/18 01:04:05;;;;;;;4.30;3.90;;;;;;;;;;5000715;28;20032;-56
2022/03/18 01:06:31;;;;;;;4.15;3.75;;;;;;;;;;5008902;28;20044;-58
2022/03/18 01:08:57;;;;;;;3.80;3.50;;;;;;;;;;5000722;28;20030;-58
2022/03/18 01:11:22;;;;;;;3.95;3.65;;;;;;;;;;5000277;28;20096;-57
2022/03/18 01:13:48;;;;;;;3.70;3.40;;;;;;;;;;5002043;28;20038;-58
2022/03/18 01:16:14;;;;;;;4.65;4.22;;;;;;;;;;4999861;28;20026;-57
2022/03/18 01:18:39;;;;;;;4.45;3.97;;;;;;;;;;4999625;28;20436;-57
2022/03/18 01:21:05;;;;;;;3.97;3.67;;;;;;;;;;4997789;28;20022;-58
2022/03/18 01:23:30;;;;;;;3.60;3.30;;;;;;;;;;5000437;28;20044;-58
2022/03/18 01:25:55;;;;;;;3.55;3.25;;;;;;;;;;4997421;28;20084;-58
2022/03/18 01:28:22;;;;;;;4.43;4.00;;;;;;;;;;5000092;28;20026;-58
2022/03/18 01:30:47;;;;;;;4.20;3.80;;;;;;;;;;5003034;28;20042;-58
2022/03/18 01:33:13;;;;;;;4.18;3.78;;;;;;;;;;4998502;28;20096;-57
2022/03/18 01:35:38;;;;;;;6.03;3.75;;;;;;;;;;5000845;28;20034;-58
2022/03/18 01:38:04;;;;;;;3.60;3.30;;;;;;;;;;4999310;28;20034;-57
2022/03/18 01:40:29;;;;;;;3.70;3.40;;;;;;;;;;5000772;28;20095;-57
2022/03/18 01:42:55;;;;;;;4.95;4.22;;;;;;;;;;4998027;28;20478;-58
2022/03/18 01:45:21;;;;;;;3.90;3.50;;;;;;;;;;4999830;28;20048;-59
2022/03/18 01:47:47;;;;;;;6.43;3.90;;;;;;;;;;4998894;28;20038;-57
2022/03/18 01:50:14;;;;;;;4.65;4.25;;;;;;;;;;5001251;28;20037;-58
2022/03/18 01:52:40;;;;;;;4.90;4.50;;;;;;;;;;5000426;28;20081;-58
2022/03/18 01:55:06;;;;;;;3.78;3.47;;;;;;;;;;4999960;28;20080;-58
2022/03/18 01:57:32;;;;;;;4.30;3.90;;;;;;;;;;5002306;28;20526;-57
2022/03/18 01:59:59;;;;;;;3.90;3.60;;;;;;;;;;5001543;28;20030;-57
2022/03/18 02:02:25;;;;;;;5.03;4.50;;;;;;;;;;5001979;28;20344;-57
2022/03/18 02:04:50;;;;;;;3.83;3.35;;;;;;;;;;4998559;28;20044;-58
2022/03/18 02:07:16;;;;;;;4.25;3.85;;;;;;;;;;4999240;28;20045;-56
2022/03/18 02:09:42;;;;;;;3.42;3.13;;;;;;;;;;5001011;28;20025;-58
2022/03/18 02:12:09;;;;;;;4.15;3.75;;;;;;;;;;4998369;28;20855;-56
2022/03/18 02:14:34;;;;;;;4.97;4.50;;;;;;;;;;4996751;28;20375;-56
2022/03/18 02:17:01;;;;;;;4.90;4.15;;;;;;;;;;4998697;28;20093;-56
2022/03/18 02:19:26;;;;;;;4.13;3.65;;;;;;;;;;5001327;28;20494;-56
2022/03/18 02:21:55;;;;;;;4.82;3.85;;;;;;;;;;4998622;28;20033;-56
2022/03/18 02:24:21;;;;;;;3.60;3.30;;;;;;;;;;4999403;28;20025;-57
2022/03/18 02:26:48;;;;;;;3.97;3.58;;;;;;;;;;5000431;28;20100;-58
2022/03/18 02:29:14;;;;;;;4.13;3.65;;;;;;;;;;5000046;28;20372;-58
2022/03/18 02:31:39;;;;;;;4.07;3.67;;;;;;;;;;4999200;28;20037;-58
2022/03/18 02:34:05;;;;;;;3.55;3.25;;;;;;;;;;4998085;28;20089;-57
2022/03/18 02:36:30;;;;;;;3.38;3.08;;;;;;;;;;4998305;28;20030;-57
2022/03/18 02:38:55;;;;;;;4.00;3.67;;;;;;;;;;4998071;28;20523;-57
2022/03/18 02:41:21;;;;;;;4.20;3.80;;;;;;;;;;4999805;28;20037;-57
2022/03/18 02:43:47;;;;;;;5.28;4.00;;;;;;;;;;5000399;28;20061;-58
2022/03/18 02:46:14;;;;;;;3.92;3.60;;;;;;;;;;4997983;28;20064;-58
2022/03/18 02:48:39;;;;;;;4.20;3.75;;;;;;;;;;4998828;28;20448;-57
2022/03/18 02:51:07;;;;;;;4.03;3.72;;;;;;;;;;4999941;28;20064;-57
2022/03/18 02:53:32;;;;;;;4.40;4.00;;;;;;;;;;4998529;28;20137;-57
2022/03/18 02:55:58;;;;;;;4.30;3.40;;;;;;;;;;4997273;28;20580;-57
2022/03/18 02:58:23;;;;;;;4.43;3.28;;;;;;;;;;4997440;28;20022;-56
2022/03/18 03:00:49;;;;;;;3.80;3.45;;;;;;;;;;4998214;28;20041;-56
2022/03/18 03:03:14;;;;;;;4.25;3.85;;;;;;;;;;4999379;28;20034;-58
2022/03/18 03:08:23;;;;;;;4.10;3.67;;;;;;;;;;4997347;28;20040;-58
2022/03/18 03:10:49;;;;;;;6.70;4.45;;;;;;;;;;5000674;28;20452;-58
2022/03/18 03:13:14;;;;;;;3.75;3.45;;;;;;;;;;5001546;28;20041;-58
2022/03/18 03:15:40;;;;;;;3.45;3.10;;;;;;;;;;4999555;28;20038;-58
2022/03/18 03:18:06;;;;;;;4.63;3.97;;;;;;;;;;4999361;28;20036;-58
2022/03/18 03:20:32;;;;;;;3.80;3.50;;;;;;;;;;5001329;28;20666;-58
2022/03/18 03:22:58;;;;;;;4.28;3.88;;;;;;;;;;4998886;28;20033;-57
2022/03/18 03:25:23;;;;;;;4.25;3.85;;;;;;;;;;4997134;28;20431;-58
2022/03/18 03:27:53;;;;;;;3.78;3.47;;;;;;;;;;4996700;28;20128;-57
2022/03/18 03:30:19;;;;;;;4.18;3.78;;;;;;;;;;4998593;28;20528;-58
2022/03/18 03:32:45;;;;;;;4.70;4.30;;;;;;;;;;4996800;28;20144;-58
2022/03/18 03:35:10;;;;;;;4.38;4.00;;;;;;;;;;5005892;28;20105;-56
2022/03/18 03:37:36;;;;;;;3.90;3.60;;;;;;;;;;5005287;28;20057;-57
2022/03/18 03:40:02;;;;;;;5.18;4.68;;;;;;;;;;5005490;28;20041;-58
2022/03/18 03:42:28;;;;;;;3.70;3.40;;;;;;;;;;5006549;28;20025;-58
2022/03/18 03:44:53;;;;;;;4.32;3.92;;;;;;;;;;5004193;28;20034;-58
2022/03/18 03:47:19;;;;;;;6.72;4.75;;;;;;;;;;5003355;28;20054;-58
2022/03/18 03:49:44;;;;;;;4.15;3.75;;;;;;;;;;5001660;28;20129;-58
2022/03/18 03:52:10;;;;;;;4.95;3.95;;;;;;;;;;5003519;28;20062;-58
2022/03/18 03:54:37;;;;;;;4.20;3.80;;;;;;;;;;5002507;28;20321;-57
2022/03/18 03:57:06;;;;;;;3.92;3.53;;;;;;;;;;5005275;28;20351;-58
2022/03/18 03:59:31;;;;;;;6.28;3.63;;;;;;;;;;5004027;28;20113;-58
2022/03/18 04:01:58;;;;;;;4.28;3.88;;;;;;;;;;5000619;28;20133;-57
2022/03/18 04:04:24;;;;;;;4.85;4.45;;;;;;;;;;5002487;28;20037;-57
2022/03/18 04:06:50;;;;;;;6.60;3.78;;;;;;;;;;4999649;28;20049;-58
2022/03/18 04:09:16;;;;;;;3.83;3.50;;;;;;;;;;5003752;28;20069;-58
2022/03/18 04:11:41;;;;;;;4.53;4.13;;;;;;;;;;4999749;28;20030;-57
2022/03/18 04:14:07;;;;;;;3.85;3.55;;;;;;;;;;5002792;28;20085;-57
2022/03/18 04:16:32;;;;;;;3.85;3.55;;;;;;;;;;5001586;28;20034;-57
2022/03/18 04:18:57;;;;;;;3.88;3.58;;;;;;;;;;5004310;28;20414;-56
2022/03/18 04:21:23;;;;;;;4.20;3.78;;;;;;;;;;5009861;28;20030;-58
2022/03/18 04:23:49;;;;;;;12.38;4.25;;;;;;;;;;5000634;28;20030;-57
2022/03/18 04:26:14;;;;;;;3.95;3.55;;;;;;;;;;5002880;28;20038;-56
2022/03/18 04:28:39;;;;;;;4.00;3.70;;;;;;;;;;5003263;28;20107;-57
2022/03/18 04:31:05;;;;;;;4.13;3.83;;;;;;;;;;5001222;28;20925;-58
2022/03/18 04:33:30;;;;;;;4.13;3.72;;;;;;;;;;5003179;28;20029;-57
2022/03/18 04:35:55;;;;;;;4.43;4.03;;;;;;;;;;5001381;28;20042;-57
2022/03/18 04:38:21;;;;;;;4.43;4.03;;;;;;;;;;5002316;28;20460;-58
2022/03/18 04:40:46;;;;;;;4.18;3.78;;;;;;;;;;5001066;28;20034;-57
2022/03/18 04:43:12;;;;;;;4.38;3.97;;;;;;;;;;5000443;28;20407;-57
2022/03/18 04:45:37;;;;;;;4.28;3.90;;;;;;;;;;5004262;28;20038;-57
2022/03/18 04:48:03;;;;;;;7.28;4.18;;;;;;;;;;5001482;28;20026;-57
2022/03/18 04:50:29;;;;;;;3.70;3.40;;;;;;;;;;5004507;28;20476;-58
2022/03/18 04:52:55;;;;;;;4.57;4.18;;;;;;;;;;4999421;28;20030;-56
2022/03/18 04:55:20;;;;;;;4.28;3.88;;;;;;;;;;5000237;28;20041;-57
2022/03/18 04:57:46;;;;;;;4.00;3.60;;;;;;;;;;5002020;28;20038;-56
2022/03/18 05:00:13;;;;;;;5.07;4.07;;;;;;;;;;5001237;28;20034;-56
2022/03/18 05:02:38;;;;;;;3.75;3.45;;;;;;;;;;4998519;28;20040;-57
2022/03/18 05:05:08;;;;;;;5.35;4.85;;;;;;;;;;4999939;28;20026;-57
2022/03/18 05:07:34;;;;;;;4.30;3.90;;;;;;;;;;4998065;28;20058;-57
2022/03/18 05:10:00;;;;;;;4.32;3.92;;;;;;;;;;4998475;28;20026;-58
2022/03/18 05:12:27;;;;;;;4.22;3.88;;;;;;;;;;5000503;28;20082;-57
2022/03/18 05:14:54;;;;;;;4.18;3.78;;;;;;;;;;5000894;28;20432;-58
2022/03/18 05:17:19;;;;;;;4.78;4.13;;;;;;;;;;5000030;28;20088;-58
2022/03/18 05:19:44;;;;;;;5.35;4.88;;;;;;;;;;5001890;28;20491;-58
2022/03/18 05:22:10;;;;;;;5.18;4.70;;;;;;;;;;4995392;28;20026;-57
2022/03/18 05:24:35;;;;;;;3.97;3.60;;;;;;;;;;4998455;28;20620;-56
2022/03/18 05:27:01;;;;;;;4.60;4.20;;;;;;;;;;5003481;28;20069;-57
2022/03/18 05:29:27;;;;;;;4.40;4.00;;;;;;;;;;5000161;28;20371;-58
2022/03/18 05:31:53;;;;;;;4.90;4.40;;;;;;;;;;5002261;28;20092;-56
2022/03/18 05:34:18;;;;;;;7.88;4.70;;;;;;;;;;4998202;28;20375;-57
2022/03/18 05:36:44;;;;;;;4.68;4.28;;;;;;;;;;4999697;28;20034;-56
2022/03/18 05:39:10;;;;;;;6.13;3.95;;;;;;;;;;5000455;28;20113;-57
2022/03/18 05:41:35;;;;;;;4.68;4.22;;;;;;;;;;5002152;28;20037;-57
2022/03/18 05:44:01;;;;;;;4.65;4.25;;;;;;;;;;5000704;28;20427;-58
2022/03/18 05:46:26;;;;;;;4.68;4.28;;;;;;;;;;4998532;28;20395;-56
2022/03/18 05:48:52;;;;;;;4.68;4.28;;;;;;;;;;5000109;28;20148;-57
2022/03/18 05:51:18;;;;;;;4.85;4.35;;;;;;;;;;5001337;28;20018;-57
2022/03/18 05:53:43;;;;;;;4.68;4.28;;;;;;;;;;4999084;28;20042;-57
2022/03/18 05:58:53;;;;;;;4.78;4.35;;;;;;;;;;4999463;28;20022;-58
2022/03/18 06:01:19;;;;;;;5.35;4.85;;;;;;;;;;4998080;28;20375;-57
2022/03/18 06:03:44;;;;;;;4.63;4.22;;;;;;;;;;4997514;28;20030;-57
2022/03/18 06:06:09;;;;;;;5.15;4.65;;;;;;;;;;4998061;28;20463;-58
2022/03/18 06:14:03;;;;;;;5.32;4.82;;;;;;;;;;5000015;28;20037;-57
2022/03/18 06:16:28;;;;;;;4.30;3.90;;;;;;;;;;5001609;28;20121;-58
2022/03/18 06:18:54;;;;;;;4.93;4.43;;;;;;;;;;4998336;28;20041;-57
2022/03/18 06:21:23;;;;;;;4.75;4.35;;;;;;;;;;4998308;28;20451;-57
2022/03/18 06:23:48;;;;;;;4.50;4.10;;;;;;;;;;5000098;28;20045;-58
2022/03/18 06:26:14;;;;;;;5.43;4.82;;;;;;;;;;5000687;28;20102;-57
2022/03/18 06:28:39;;;;;;;8.88;5.28;;;;;;;;;;4999802;28;20033;-55
2022/03/18 06:31:06;;;;;;;4.57;4.18;;;;;;;;;;5001859;28;20653;-54
2022/03/18 06:33:32;;;;;;;5.47;4.40;;;;;;;;;;4999395;28;20079;-56
2022/03/18 06:35:58;;;;;;;4.07;3.67;;;;;;;;;;5000049;28;20085;-55
2022/03/18 06:38:23;;;;;;;4.13;3.83;;;;;;;;;;5006217;28;20038;-56
2022/03/18 06:40:49;;;;;;;4.25;3.85;;;;;;;;;;5000531;28;20080;-54
2022/03/18 06:43:15;;;;;;;8.00;4.03;;;;;;;;;;5000011;28;20053;-54
2022/03/18 06:45:41;;;;;;;4.30;3.90;;;;;;;;;;5000386;28;20518;-55
2022/03/18 06:48:07;;;;;;;19.20;3.92;;;;;;;;;;4995789;28;20038;-56
2022/03/18 06:50:32;;;;;;;4.90;4.45;;;;;;;;;;4999151;28;20104;-53
2022/03/18 06:52:58;;;;;;;5.65;4.82;;;;;;;;;;4999449;28;20049;-54
2022/03/18 06:55:23;;;;;;;5.18;4.70;;;;;;;;;;5001766;28;20608;-55
2022/03/18 06:57:49;;;;;;;4.82;4.32;;;;;;;;;;4999269;28;20471;-56
2022/03/18 07:00:14;;;;;;;5.43;4.93;;;;;;;;;;4999063;28;20528;-55
2022/03/18 07:02:40;;;;;;;5.00;4.28;;;;;;;;;;4997278;28;20045;-54
2022/03/18 07:05:05;;;;;;;8.02;5.30;;;;;;;;;;4995802;28;20392;-55
2022/03/18 07:07:31;;;;;;;4.57;4.18;;;;;;;;;;5003086;28;20033;-56
2022/03/18 07:09:56;;;;;;;5.78;5.22;;;;;;;;;;5004928;28;20022;-56
2022/03/18 07:12:21;;;;;;;4.03;3.72;;;;;;;;;;5005800;28;20152;-57
2022/03/18 07:14:47;;;;;;;4.82;4.43;;;;;;;;;;4995776;28;20491;-54
2022/03/18 07:19:56;;;;;;;3.92;3.63;;;;;;;;;;5002219;28;20026;-55
2022/03/18 07:22:24;;;;;;;4.55;4.15;;;;;;;;;;5003787;28;20034;-55
2022/03/18 07:24:49;;;;;;;4.25;3.85;;;;;;;;;;5003431;28;20034;-57
2022/03/18 07:27:16;;;;;;;4.35;3.78;;;;;;;;;;5004590;28;20466;-54
2022/03/18 07:29:41;;;;;;;5.55;4.50;;;;;;;;;;5002611;28;20490;-57
2022/03/18 07:32:07;;;;;;;4.03;3.55;;;;;;;;;;5004507;28;20038;-55
2022/03/18 07:34:32;;;;;;;4.95;4.35;;;;;;;;;;5006271;28;20022;-55
2022/03/18 07:36:58;;;;;;;4.60;4.20;;;;;;;;;;5004865;28;20349;-55
2022/03/18 07:39:23;;;;;;;4.72;4.32;;;;;;;;;;5003739;28;20041;-53
2022/03/18 07:41:49;;;;;;;4.30;3.90;;;;;;;;;;5005808;28;20038;-54
2022/03/18 07:44:14;;;;;;;4.78;4.38;;;;;;;;;;5004313;28;20030;-56
2022/03/18 07:46:40;;;;;;;4.85;4.45;;;;;;;;;;5001917;28;20045;-54
2022/03/18 07:49:05;;;;;;;5.18;4.68;;;;;;;;;;5007777;28;20037;-57
2022/03/18 07:51:31;;;;;;;7.35;5.53;;;;;;;;;;5001884;28;20042;-51
2022/03/18 07:53:56;;;;;;;5.90;4.75;;;;;;;;;;5000843;28;20087;-55
2022/03/18 07:56:22;;;;;;;8.93;5.53;;;;;;;;;;4999073;28;20027;-52
2022/03/18 07:58:48;;;;;;;6.00;5.50;;;;;;;;;;4997705;28;20363;-50
2022/03/18 08:01:13;;;;;;;7.45;4.85;;;;;;;;;;5000068;28;20378;-51
2022/03/18 08:03:39;;;;;;;5.60;5.07;;;;;;;;;;5000396;28;20061;-52
2022/03/18 08:06:04;;;;;;;4.47;4.07;;;;;;;;;;4998063;28;20037;-56
2022/03/18 08:08:31;;;;;;;7.45;5.53;;;;;;;;;;5007184;28;20040;-50
2022/03/18 08:10:57;;;;;;;6.57;5.97;;;;;;;;;;5000721;28;20467;-50
2022/03/18 08:13:23;;;;;;;5.95;5.22;;;;;;;;;;4996767;28;20057;-51
2022/03/18 08:15:49;;;;;;;4.90;4.50;;;;;;;;;;4997112;28;20052;-49
2022/03/18 08:18:15;;;;;;;5.70;5.13;;;;;;;;;;5003412;28;20042;-53
2022/03/18 08:20:41;;;;;;;8.88;4.28;;;;;;;;;;4996229;28;20117;-54
2022/03/18 08:23:09;;;;;;;8.77;5.47;;;;;;;;;;4994885;28;20139;-53
2022/03/18 08:25:34;;;;;;;5.93;5.32;;;;;;;;;;4997966;28;20798;-51
2022/03/18 08:27:59;;;;;;;4.88;4.43;;;;;;;;;;4996326;28;20060;-54
2022/03/18 08:30:25;;;;;;;4.55;4.07;;;;;;;;;;4995871;28;20092;-56
2022/03/18 08:32:50;;;;;;;8.02;5.25;;;;;;;;;;4998500;28;20041;-54
2022/03/18 08:35:15;;;;;;;9.82;5.35;;;;;;;;;;5000080;28;20120;-53
2022/03/18 08:37:56;;;;;;;10.07;5.25;;;;;;;;;;4995063;28;20115;-53
2022/03/18 08:40:32;;;;;;;4.75;4.30;;;;;;;;;;4996088;28;20052;-54
2022/03/18 08:42:59;;;;;;;4.97;3.65;;;;;;;;;;4992563;28;20038;-55
2022/03/18 08:45:26;;;;;;;7.38;4.28;;;;;;;;;;4995593;28;20056;-53
2022/03/18 08:47:53;;;;;;;4.93;4.40;;;;;;;;;;4995534;28;20101;-51
2022/03/18 08:50:21;;;;;;;5.70;4.88;;;;;;;;;;4995385;28;20527;-52
2022/03/18 08:52:47;;;;;;;6.05;5.47;;;;;;;;;;4994855;28;20045;-51
2022/03/18 08:55:13;;;;;;;5.45;5.00;;;;;;;;;;4992240;28;20029;-53
2022/03/18 08:57:39;;;;;;;5.88;4.25;;;;;;;;;;4993377;28;20113;-52
2022/03/18 09:00:07;;;;;;;4.53;4.13;;;;;;;;;;4991652;28;20459;-52
2022/03/18 09:02:37;;;;;;;5.13;4.65;;;;;;;;;;4995260;28;20383;-53
2022/03/18 09:05:04;;;;;;;4.68;4.28;;;;;;;;;;4993094;28;20030;-51
2022/03/18 09:07:30;;;;;;;4.47;4.10;;;;;;;;;;4995528;28;20049;-53
2022/03/18 09:09:56;;;;;;;4.82;4.43;;;;;;;;;;5001186;28;20026;-52
2022/03/18 09:12:21;;;;;;;4.95;4.55;;;;;;;;;;4997200;28;20045;-55
2022/03/18 09:14:47;;;;;;;7.93;5.28;;;;;;;;;;4995908;28;20119;-53
2022/03/18 09:17:12;;;;;;;6.00;5.40;;;;;;;;;;4997044;28;20144;-52
2022/03/18 09:19:38;;;;;;;5.30;4.90;;;;;;;;;;4995038;28;20052;-51
2022/03/18 09:22:06;;;;;;;7.70;6.53;;;;;;;;;;4991989;28;20079;-53
2022/03/18 09:24:32;;;;;;;6.93;5.32;;;;;;;;;;4993217;28;20034;-54
2022/03/18 09:26:57;;;;;;;5.63;5.13;;;;;;;;;;4995599;28;20034;-52
2022/03/18 09:29:25;;;;;;;5.68;5.18;;;;;;;;;;5001747;28;20474;-53
2022/03/18 09:31:51;;;;;;;6.13;5.50;;;;;;;;;;4995085;28;20595;-52
2022/03/18 09:34:17;;;;;;;5.90;5.40;;;;;;;;;;4997709;28;20402;-51
2022/03/18 09:36:42;;;;;;;6.53;5.90;;;;;;;;;;5000106;28;20026;-50
2022/03/18 09:39:07;;;;;;;7.18;6.57;;;;;;;;;;4995529;28;20072;-52
2022/03/18 09:41:33;;;;;;;7.07;6.50;;;;;;;;;;4998131;28;20176;-51
2022/03/18 09:43:58;;;;;;;6.32;5.82;;;;;;;;;;4997683;28;20030;-54
2022/03/18 09:46:25;;;;;;;6.60;6.10;;;;;;;;;;5002346;28;20042;-52
2022/03/18 09:48:51;;;;;;;5.90;5.30;;;;;;;;;;4999705;28;20176;-53
2022/03/18 09:51:17;;;;;;;6.28;5.82;;;;;;;;;;4997179;28;20033;-52
2022/03/18 09:53:43;;;;;;;6.07;5.63;;;;;;;;;;4995552;28;20030;-49
2022/03/18 09:56:10;;;;;;;6.82;5.45;;;;;;;;;;4993523;28;20038;-49
2022/03/18 09:58:35;;;;;;;6.47;5.40;;;;;;;;;;4999508;28;20458;-52
2022/03/18 10:01:01;;;;;;;6.05;5.65;;;;;;;;;;4999149;28;20045;-54
2022/03/18 10:03:42;;;;;;;6.45;5.95;;;;;;;;;;4997703;28;20960;-54
2022/03/18 10:06:10;;;;;;;;;;;;;;;;;;4995967;28;20741;-51
2022/03/18 10:08:35;;;;;;;5.63;5.22;;;;;;;;;;4995434;28;20339;-53
2022/03/18 10:11:13;;;;;;;7.85;6.93;;;;;;;;;;4997257;28;20108;-52
2022/03/18 10:13:54;;;;;;;11.57;6.45;;;;;;;;;;4996606;28;20108;-54
2022/03/18 10:16:39;;;;;;;7.45;6.85;;;;;;;;;;4995441;28;20045;-53
2022/03/18 10:19:13;;;;;;;6.05;5.55;;;;;;;;;;4999509;28;20033;-54
2022/03/18 10:21:57;;;;;;;6.85;6.35;;;;;;;;;;4998759;28;20119;-52
2022/03/18 10:24:30;;;;;;;9.77;5.55;;;;;;;;;;4997283;28;20029;-53
2022/03/18 10:27:11;;;;;;;9.73;6.78;;;;;;;;;;4997470;28;20201;-54
2022/03/18 10:29:42;;;;;;;6.18;5.75;;;;;;;;;;4998676;28;20026;-53
2022/03/18 10:32:08;;;;;;;7.57;7.00;;;;;;;;;;4997825;28;20137;-52
2022/03/18 10:37:23;;;;;;;6.30;5.85;;;;;;;;;;4993577;28;20029;-52
2022/03/18 10:39:52;;;;;;;7.47;6.80;;;;;;;;;;5000799;28;20048;-54
2022/03/18 10:42:19;;;;;;;6.38;5.88;;;;;;;;;;4994189;28;20034;-53
2022/03/18 10:44:59;;;;;;;5.80;5.40;;;;;;;;;;4995102;28;20125;-54
2022/03/18 10:47:41;;;;;;;6.15;5.65;;;;;;;;;;4993073;28;20030;-52
2022/03/18 10:50:09;;;;;;;5.82;5.30;;;;;;;;;;4993584;28;20088;-54
2022/03/18 10:52:38;;;;;;;6.40;5.90;;;;;;;;;;4996609;28;20125;-53
2022/03/18 10:55:25;;;;;;;5.90;5.50;;;;;;;;;;4992561;28;20041;-55
2022/03/18 10:57:59;;;;;;;5.82;5.32;;;;;;;;;;4991924;28;20041;-54
2022/03/18 11:00:26;;;;;;;5.78;5.20;;;;;;;;;;4997687;28;20042;-53
2022/03/18 11:02:53;;;;;;;5.20;4.80;;;;;;;;;;4997235;28;20029;-54
2022/03/18 11:05:20;;;;;;;5.65;5.07;;;;;;;;;;4993223;28;21928;-54
2022/03/18 11:07:52;;;;;;;5.63;5.22;;;;;;;;;;4994335;28;20129;-53
2022/03/18 11:13:04;;;;;;;6.25;5.75;;;;;;;;;;4996552;28;20116;-53
2022/03/18 11:15:39;;;;;;;6.53;5.97;;;;;;;;;;4994248;28;20534;-54
2022/03/18 11:18:08;;;;;;;5.50;5.10;;;;;;;;;;5000710;28;20041;-51
2022/03/18 11:20:33;;;;;;;5.10;4.70;;;;;;;;;;4996790;28;20483;-53
2022/03/18 11:23:00;;;;;;;6.28;5.15;;;;;;;;;;4996081;28;20052;-51
2022/03/18 11:25:28;;;;;;;5.75;5.25;;;;;;;;;;4996756;28;20037;-54
2022/03/18 11:27:55;;;;;;;5.25;4.75;;;;;;;;;;4995664;28;20435;-53
2022/03/18 11:30:38;;;;;;;5.20;4.70;;;;;;;;;;4997982;28;20113;-54
2022/03/18 11:33:10;;;;;;;4.90;4.50;;;;;;;;;;4993141;28;20108;-56
2022/03/18 11:35:48;;;;;;;5.07;4.68;;;;;;;;;;5009561;28;20044;-55
2022/03/18 11:38:19;;;;;;;4.45;4.07;;;;;;;;;;4994910;28;20038;-54
2022/03/18 11:41:01;;;;;;;5.80;4.57;;;;;;;;;;4997252;28;20116;-54
2022/03/18 11:43:47;;;;;;;5.00;4.47;;;;;;;;;;4995975;28;20041;-52
2022/03/18 11:46:16;;;;;;;5.00;4.60;;;;;;;;;;4996994;28;20034;-55
2022/03/18 11:48:49;;;;;;;5.25;4.85;;;;;;;;;;4995925;28;20145;-52
2022/03/18 11:51:35;;;;;;;5.30;4.90;;;;;;;;;;4995175;28;20029;-52
2022/03/18 11:54:10;;;;;;;6.28;5.78;;;;;;;;;;4999481;28;20033;-54
2022/03/18 11:56:38;;;;;;;5.80;5.40;;;;;;;;;;4999384;28;20042;-54
2022/03/18 11:59:24;;;;;;;4.65;4.25;;;;;;;;;;5000751;28;20636;-55
2022/03/18 12:02:05;;;;;;;5.60;5.20;;;;;;;;;;4997806;28;20069;-52
2022/03/18 12:04:34;;;;;;;5.22;4.82;;;;;;;;;;5000557;28;20049;-53
2022/03/18 12:07:19;;;;;;;4.82;4.43;;;;;;;;;;4999480;28;20044;-54
2022/03/18 12:09:48;;;;;;;5.75;5.13;;;;;;;;;;5004491;28;20128;-55
2022/03/18 12:12:22;;;;;;;4.90;4.50;;;;;;;;;;4999508;28;20038;-54
2022/03/18 12:14:49;;;;;;;5.35;4.95;;;;;;;;;;4999614;28;20038;-50
2022/03/18 12:17:15;;;;;;;6.90;5.35;;;;;;;;;;5000308;28;20076;-52
2022/03/18 12:19:48;;;;;;;6.70;6.20;;;;;;;;;;4999586;28;20026;-54
2022/03/18 12:22:14;;;;;;;6.30;5.90;;;;;;;;;;4999326;28;20109;-55
2022/03/18 12:24:40;;;;;;;5.70;5.30;;;;;;;;;;4998572;28;20120;-54
2022/03/18 12:27:06;;;;;;;6.30;5.80;;;;;;;;;;5002227;28;20030;-57
2022/03/18 12:29:31;;;;;;;7.10;6.60;;;;;;;;;;4997266;28;20052;-57
2022/03/18 12:32:05;;;;;;;6.82;6.32;;;;;;;;;;4997973;28;20037;-56
2022/03/18 12:34:31;;;;;;;6.78;6.28;;;;;;;;;;5003939;28;20034;-56
2022/03/18 12:36:56;;;;;;;7.10;6.60;;;;;;;;;;5000290;28;20042;-54
2022/03/18 12:39:26;;;;;;;6.63;6.13;;;;;;;;;;4996751;28;20040;-57
2022/03/18 12:42:05;;;;;;;7.03;6.53;;;;;;;;;;4996652;28;20073;-56
2022/03/18 12:44:31;;;;;;;8.48;6.70;;;;;;;;;;4997518;28;20034;-56
2022/03/18 12:46:58;;;;;;;7.07;6.55;;;;;;;;;;4994498;28;20592;-55
2022/03/18 12:49:32;;;;;;;6.55;6.05;;;;;;;;;;4998083;28;20034;-55
2022/03/18 12:51:57;;;;;;;6.78;6.28;;;;;;;;;;4996837;28;20502;-56
2022/03/18 12:54:23;;;;;;;7.10;6.50;;;;;;;;;;4999195;28;20034;-57
2022/03/18 12:56:48;;;;;;;8.50;7.85;;;;;;;;;;4994471;28;20448;-54
2022/03/18 12:59:15;;;;;;;7.50;6.90;;;;;;;;;;4997467;28;20064;-54
2022/03/18 13:01:52;;;;;;;6.80;6.30;;;;;;;;;;4998121;28;20038;-51
2022/03/18 13:04:19;;;;;;;6.45;5.95;;;;;;;;;;4997912;28;20033;-54
2022/03/18 13:06:46;;;;;;;7.00;6.30;;;;;;;;;;4998366;28;20084;-52
2022/03/18 13:09:15;;;;;;;5.47;5.07;;;;;;;;;;4999429;28;20572;-55
2022/03/18 13:11:41;;;;;;;6.47;6.00;;;;;;;;;;5000102;28;20026;-54
2022/03/18 13:14:06;;;;;;;5.15;4.75;;;;;;;;;;4996456;28;20084;-55
2022/03/18 13:16:40;;;;;;;5.68;5.18;;;;;;;;;;4998962;28;20033;-54
2022/03/18 13:19:07;;;;;;;5.97;5.57;;;;;;;;;;5000306;28;20034;-55
2022/03/18 13:21:43;;;;;;;6.03;5.53;;;;;;;;;;4997912;28;20124;-55
2022/03/18 13:24:08;;;;;;;5.43;5.03;;;;;;;;;;4999478;28;20057;-54
2022/03/18 13:26:34;;;;;;;5.18;4.78;;;;;;;;;;4996175;28;20586;-55
2022/03/18 13:29:00;;;;;;;5.78;5.28;;;;;;;;;;4997275;28;20057;-58
2022/03/18 13:34:10;;;;;;;6.10;5.68;;;;;;;;;;4999742;28;20037;-57
2022/03/18 13:36:39;;;;;;;5.25;4.85;;;;;;;;;;4999169;28;20037;-58
2022/03/18 13:39:08;;;;;;;5.90;5.50;;;;;;;;;;4997979;28;20444;-57
2022/03/18 13:41:51;;;;;;;5.85;5.35;;;;;;;;;;4998584;28;20045;-54
2022/03/18 13:44:17;;;;;;;6.32;5.82;;;;;;;;;;4996114;28;20124;-56
2022/03/18 13:47:00;;;;;;;6.40;5.93;;;;;;;;;;4980014;28;20053;-54
2022/03/18 13:49:26;;;;;;;6.53;6.05;;;;;;;;;;4997965;28;20092;-54
2022/03/18 13:52:05;;;;;;;5.50;5.10;;;;;;;;;;5000447;28;20431;-53
2022/03/18 13:55:00;;;;;;;5.45;5.05;;;;;;;;;;5003829;28;20025;-55
2022/03/18 13:57:26;;;;;;;5.95;5.55;;;;;;;;;;4988804;28;20527;-54
2022/03/18 13:59:59;;;;;;;6.68;6.18;;;;;;;;;;4996686;28;20098;-51
2022/03/18 14:02:29;;;;;;;6.63;6.13;;;;;;;;;;4999216;28;20042;-55
2022/03/18 14:04:58;;;;;;;6.93;6.43;;;;;;;;;;5000193;28;20046;-53
2022/03/18 14:07:46;;;;;;;6.75;6.25;;;;;;;;;;5000847;28;20280;-55
2022/03/18 14:10:13;;;;;;;6.65;6.15;;;;;;;;;;4996875;28;20419;-52
2022/03/18 14:12:39;;;;;;;6.03;5.60;;;;;;;;;;4999247;28;20099;-55
2022/03/18 14:15:17;;;;;;;5.50;5.10;;;;;;;;;;4995378;28;20041;-57
2022/03/18 14:17:58;;;;;;;6.40;5.93;;;;;;;;;;4998447;28;20057;-57
2022/03/18 14:20:26;;;;;;;6.15;5.65;;;;;;;;;;4998722;28;20034;-57
2022/03/18 14:22:54;;;;;;;5.55;5.15;;;;;;;;;;4995498;28;20084;-57
2022/03/18 14:25:20;;;;;;;6.13;5.72;;;;;;;;;;4998977;28;20030;-57
2022/03/18 14:27:48;;;;;;;6.93;6.32;;;;;;;;;;4996679;28;20073;-55
2022/03/18 14:30:13;;;;;;;6.00;5.60;;;;;;;;;;4997296;28;20054;-55
2022/03/18 14:32:43;;;;;;;5.93;5.53;;;;;;;;;;4997340;28;20072;-52
2022/03/18 14:35:09;;;;;;;6.37;5.90;;;;;;;;;;4997233;28;20026;-58
2022/03/18 14:37:35;;;;;;;5.95;5.55;;;;;;;;;;4996219;28;20053;-54
2022/03/18 14:40:07;;;;;;;6.70;6.20;;;;;;;;;;5000512;28;20034;-53
2022/03/18 14:42:33;;;;;;;6.30;5.90;;;;;;;;;;4995745;28;20104;-55
2022/03/18 14:45:01;;;;;;;6.15;5.68;;;;;;;;;;4998034;28;20034;-54
2022/03/18 14:47:27;;;;;;;6.68;6.18;;;;;;;;;;4999794;28;20109;-57
2022/03/18 14:49:53;;;;;;;7.28;6.68;;;;;;;;;;5002343;28;20027;-57
2022/03/18 14:52:22;;;;;;;6.93;6.40;;;;;;;;;;5000587;28;20038;-57
2022/03/18 14:57:32;;;;;;;6.20;5.80;;;;;;;;;;4998321;28;20036;-57
2022/03/18 14:59:58;;;;;;;6.30;5.80;;;;;;;;;;4998738;28;20038;-58
2022/03/18 15:02:24;;;;;;;6.65;6.15;;;;;;;;;;4999541;28;20026;-58
2022/03/18 15:04:51;;;;;;;5.78;5.38;;;;;;;;;;5001378;28;20120;-58
2022/03/18 15:07:17;;;;;;;7.47;6.25;;;;;;;;;;4999546;28;20135;-55
2022/03/18 15:09:42;;;;;;;6.50;5.97;;;;;;;;;;4998499;28;20061;-55
2022/03/18 15:12:08;;;;;;;6.85;6.35;;;;;;;;;;5000093;28;20530;-56
2022/03/18 15:14:34;;;;;;;5.75;5.35;;;;;;;;;;4999482;28;20837;-55